createdAt,value
2019-06-26T00:00:28.394Z,"    0"
2019-06-26T00:05:24.159Z,"    0"
2019-06-26T00:10:20.131Z,"    0"
2019-06-26T00:15:16.031Z,"    0"
2019-06-26T00:20:12.058Z,"    0"
2019-06-26T00:25:07.955Z,"    0"
2019-06-26T00:30:03.954Z,"    0"
2019-06-26T00:34:59.988Z,"    0"
2019-06-26T00:39:55.903Z,"    0"
2019-06-26T00:44:51.769Z,"    0"
2019-06-26T00:49:47.757Z,"    0"
2019-06-26T00:54:43.757Z,"    0"
2019-06-26T00:59:39.904Z,"    0"
2019-06-26T01:04:35.758Z,"    0"
2019-06-26T01:09:31.730Z,"    0"
2019-06-26T01:14:27.894Z,"    0"
2019-06-26T01:19:23.992Z,"    0"
2019-06-26T01:24:20.833Z,"    0"
2019-06-26T01:29:16.537Z,"    0"
2019-06-26T01:34:12.358Z,"    0"
2019-06-26T01:39:08.175Z,"    0"
2019-06-26T01:44:14.457Z,"    0"
2019-06-26T01:49:05.241Z,"    0"
2019-06-26T01:54:01.167Z,"    0"
2019-06-26T01:58:57.087Z,"    0"
2019-06-26T02:03:53.149Z,"    0"
2019-06-26T02:08:48.951Z,"    0"
2019-06-26T02:13:44.976Z,"    0"
2019-06-26T02:18:40.966Z,"    0"
2019-06-26T02:23:36.957Z,"    0"
2019-06-26T02:28:32.819Z,"    4"
2019-06-26T02:33:28.914Z,"    4"
2019-06-26T02:38:24.849Z,"    8"
2019-06-26T02:43:21.743Z,"   12"
2019-06-26T02:48:18.738Z,"   20"
2019-06-26T02:53:14.468Z,"   36"
2019-06-26T02:58:10.305Z,"   60"
2019-06-26T03:03:06.015Z,"   92"
2019-06-26T03:08:02.290Z,"  132"
2019-06-26T03:12:58.382Z,"  184"
2019-06-26T03:17:55.947Z,"  248"
2019-06-26T03:22:51.751Z,"  320"
2019-06-26T03:27:47.670Z,"  408"
2019-06-26T03:32:43.614Z,"  520"
2019-06-26T03:37:39.571Z,"  640"
2019-06-26T03:42:36.589Z,"  784"
2019-06-26T03:47:32.346Z,"  936"
2019-06-26T03:52:29.377Z," 1052"
2019-06-26T03:57:25.131Z," 1368"
2019-06-26T04:02:21.093Z," 1608"
2019-06-26T04:07:17.265Z," 1828"
2019-06-26T04:12:13.196Z," 2048"
2019-06-26T04:17:09.231Z," 2300"
2019-06-26T04:22:05.189Z," 2584"
2019-06-26T04:27:01.162Z," 2856"
2019-06-26T04:31:58.158Z," 3140"
2019-06-26T04:36:54.169Z," 4228"
2019-06-26T04:41:51.889Z," 4640"
2019-06-26T04:46:49.410Z," 5220"
2019-06-26T04:51:45.717Z," 6000"
2019-06-26T04:56:42.471Z," 6912"
2019-06-26T05:01:40.100Z," 7488"
2019-06-26T05:06:36.921Z," 8228"
2019-06-26T05:11:33.704Z," 9240"
2019-06-26T05:16:30.328Z,10520
2019-06-26T05:21:27.498Z,11528
2019-06-26T05:26:23.904Z,12972
2019-06-26T05:31:20.164Z,13200
2019-06-26T05:36:16.715Z,14352
2019-06-26T05:41:13.158Z,16512
2019-06-26T05:46:10.456Z,16096
2019-06-26T05:51:07.503Z,17216
2019-06-26T05:56:03.227Z,14940
2019-06-26T06:00:58.600Z," 7496"
2019-06-26T06:05:54.126Z," 7436"
2019-06-26T06:10:48.911Z," 7436"
2019-06-26T06:15:44.714Z," 7636"
2019-06-26T06:20:40.336Z," 7660"
2019-06-26T06:25:36.290Z," 7892"
2019-06-26T06:30:32.253Z," 8008"
2019-06-26T06:35:28.254Z," 8172"
2019-06-26T06:40:25.174Z," 8436"
2019-06-26T06:45:20.738Z," 8512"
2019-06-26T06:50:16.688Z," 8460"
2019-06-26T06:55:12.534Z," 8588"
2019-06-26T07:00:09.509Z," 8588"
2019-06-26T07:05:05.031Z," 8108"
2019-06-26T07:10:01.133Z," 8060"
2019-06-26T07:14:57.266Z," 7968"
2019-06-26T07:19:53.358Z," 8188"
2019-06-26T07:24:49.471Z," 8184"
2019-06-26T07:29:45.378Z," 8772"
2019-06-26T07:34:41.441Z," 9004"
2019-06-26T07:39:37.574Z," 9000"
2019-06-26T07:44:33.738Z," 9412"
2019-06-26T07:49:30.264Z,41920
2019-06-26T07:54:29.956Z,43264
2019-06-26T07:59:29.519Z,36544
2019-06-26T08:04:26.449Z,50336
2019-06-26T08:09:23.491Z,34176
2019-06-26T08:14:20.615Z,43264
2019-06-26T08:19:17.610Z,34816
2019-06-26T08:24:14.545Z,42464
2019-06-26T08:29:11.032Z,47584
2019-06-26T08:34:07.649Z,35360
2019-06-26T08:39:04.136Z,39136
2019-06-26T08:44:01.502Z,55264
2019-06-26T08:48:57.397Z,47136
2019-06-26T08:53:53.609Z,49536
2019-06-26T08:58:49.977Z,53664
2019-06-26T09:03:46.554Z,59008
2019-06-26T09:08:42.691Z,57184
2019-06-26T09:13:40.090Z,75616
2019-06-26T09:18:36.365Z,59648
2019-06-26T09:23:32.304Z,62528
2019-06-26T09:28:28.689Z,69184
2019-06-26T09:33:24.708Z,64480
2019-06-26T09:38:20.813Z,75616
2019-06-26T09:43:16.841Z,68736
2019-06-26T09:48:12.650Z,79840
2019-06-26T09:53:08.786Z,72448
2019-06-26T09:58:06.098Z,64480
2019-06-26T10:03:02.010Z,59872
2019-06-26T10:07:58.201Z,57600
2019-06-26T10:12:54.166Z,73056
2019-06-26T10:17:50.093Z,55424
2019-06-26T10:22:45.634Z,42624
2019-06-26T10:27:42.679Z,51232
2019-06-26T10:32:39.545Z,54016
2019-06-26T10:37:35.481Z,64384
2019-06-26T10:42:31.533Z,54560
2019-06-26T10:47:27.960Z,48064
2019-06-26T10:52:24.447Z,55936
2019-06-26T10:57:20.793Z,67808
2019-06-26T11:02:17.207Z,63680
2019-06-26T11:07:13.358Z,73760
2019-06-26T11:12:09.792Z,55200
2019-06-26T11:17:06.259Z,80512
2019-06-26T11:22:03.068Z,61152
2019-06-26T11:26:59.275Z,73664
2019-06-26T11:31:55.419Z,90688
2019-06-26T11:37:03.017Z,84672
2019-06-26T11:41:50.749Z,77952
2019-06-26T11:46:47.991Z,68768
2019-06-26T11:51:43.938Z,77632
2019-06-26T11:56:40.420Z,85792
2019-06-26T12:01:36.699Z,71712
2019-06-26T12:06:32.786Z,71616
2019-06-26T12:11:28.524Z,67488
2019-06-26T12:16:23.986Z,52096
2019-06-26T12:21:20.202Z,51520
2019-06-26T12:26:16.136Z,65376
2019-06-26T12:31:11.979Z,79168
2019-06-26T12:36:08.304Z,69440
2019-06-26T12:41:03.556Z,55040
2019-06-26T12:46:00.011Z,49888
2019-06-26T12:50:56.040Z,44768
2019-06-26T12:55:51.893Z,93728
2019-06-26T13:00:48.427Z,95872
2019-06-26T13:05:44.463Z,74464
2019-06-26T13:10:49.595Z,49088
2019-06-26T13:15:39.663Z,51584
2019-06-26T13:20:51.604Z,45728
2019-06-26T13:25:34.636Z,50464
2019-06-26T13:30:30.617Z,57696
2019-06-26T13:35:27.886Z,14012
2019-06-26T13:40:23.515Z,10692
2019-06-26T13:45:18.965Z," 6840"
2019-06-26T13:50:13.968Z," 9744"
2019-06-26T13:55:09.691Z," 7596"
2019-06-26T14:00:05.617Z," 6728"
2019-06-26T14:05:00.921Z," 6468"
2019-06-26T14:09:57.188Z," 5576"
2019-06-26T14:14:57.841Z," 5876"
2019-06-26T14:19:53.084Z," 6068"
2019-06-26T14:24:49.772Z," 5980"
2019-06-26T14:29:46.700Z," 5232"
2019-06-26T14:34:42.098Z," 4904"
2019-06-26T14:39:40.880Z," 4976"
2019-06-26T14:44:36.314Z," 4840"
2019-06-26T14:49:32.140Z," 4980"
2019-06-26T14:54:27.942Z," 4752"
2019-06-26T14:59:23.867Z," 4524"
2019-06-26T15:04:19.896Z," 4364"
2019-06-26T15:09:15.845Z," 4160"
2019-06-26T15:14:12.808Z," 3916"
2019-06-26T15:19:08.486Z," 3836"
2019-06-26T15:24:04.277Z," 3692"
2019-06-26T15:29:01.135Z," 3636"
2019-06-26T15:33:57.911Z," 3500"
2019-06-26T15:38:53.376Z," 3404"
2019-06-26T15:43:50.512Z," 3292"
2019-06-26T15:48:46.255Z," 3212"
2019-06-26T15:53:42.393Z," 3212"
2019-06-26T15:58:38.480Z," 3128"
2019-06-26T16:03:35.589Z," 2988"
2019-06-26T16:08:31.225Z," 2936"
2019-06-26T16:13:27.029Z," 2908"
2019-06-26T16:18:24.020Z," 2820"
2019-06-26T16:23:20.666Z," 2760"
2019-06-26T16:28:17.183Z," 2644"
2019-06-26T16:33:12.690Z," 2564"
2019-06-26T16:38:08.640Z," 2484"
2019-06-26T16:43:05.515Z," 2428"
2019-06-26T16:48:02.052Z," 2436"
2019-06-26T16:52:57.884Z," 2356"
2019-06-26T16:57:55.007Z," 2328"
2019-06-26T17:02:50.603Z," 2288"
2019-06-26T17:07:46.712Z," 2216"
2019-06-26T17:12:42.761Z," 2176"
2019-06-26T17:17:39.666Z," 2132"
2019-06-26T17:22:36.102Z," 2088"
2019-06-26T17:27:31.684Z," 2024"
2019-06-26T17:32:27.653Z," 1952"
2019-06-26T17:37:24.043Z," 1908"
2019-06-26T17:42:21.136Z," 1840"
2019-06-26T17:47:16.862Z," 1792"
2019-06-26T17:52:13.143Z," 1744"
2019-06-26T17:57:09.069Z," 1692"
2019-06-26T18:02:04.956Z," 1664"
2019-06-26T18:07:00.724Z," 1576"
2019-06-26T18:11:56.652Z," 1520"
2019-06-26T18:16:52.367Z," 1480"
2019-06-26T18:21:48.111Z," 1448"
2019-06-26T18:26:43.937Z," 1396"
2019-06-26T18:31:40.166Z," 1344"
2019-06-26T18:36:36.232Z," 1272"
2019-06-26T18:41:33.353Z," 1200"
2019-06-26T18:46:28.776Z," 1124"
2019-06-26T18:51:25.998Z," 1048"
2019-06-26T18:56:21.701Z,"  968"
2019-06-26T19:01:17.444Z,"  912"
2019-06-26T19:06:14.067Z,"  848"
2019-06-26T19:11:09.736Z,"  768"
2019-06-26T19:16:06.007Z,"  668"
2019-06-26T19:21:01.841Z,"  572"
2019-06-26T19:25:57.673Z,"  488"
2019-06-26T19:30:53.322Z,"  408"
2019-06-26T19:35:49.942Z,"  332"
2019-06-26T19:40:45.399Z,"  276"
2019-06-26T19:45:42.066Z,"  204"
2019-06-26T19:50:37.617Z,"  148"
2019-06-26T19:55:33.701Z,"  104"
2019-06-26T20:00:29.522Z,"   64"
2019-06-26T20:05:25.099Z,"   40"
2019-06-26T20:10:20.906Z,"   24"
2019-06-26T20:15:16.930Z,"   12"
2019-06-26T20:20:12.633Z,"    8"
2019-06-26T20:25:08.436Z,"    4"
2019-06-26T20:30:03.902Z,"    4"
2019-06-26T20:35:00.234Z,"    0"
2019-06-26T20:39:55.961Z,"    0"
2019-06-26T20:44:51.929Z,"    0"
2019-06-26T20:49:53.306Z,"    0"
2019-06-26T20:55:00.475Z,"    0"
2019-06-26T20:59:47.396Z,"    0"
2019-06-26T21:04:43.873Z,"    0"
2019-06-26T21:09:40.324Z,"    0"
2019-06-26T21:14:36.685Z,"    0"
2019-06-26T21:19:32.061Z,"    0"
2019-06-26T21:24:27.716Z,"    0"
2019-06-26T21:29:23.879Z,"    0"
2019-06-26T21:34:19.494Z,"    0"
2019-06-26T21:39:16.378Z,"    0"
2019-06-26T21:44:12.079Z,"    0"
2019-06-26T21:49:08.042Z,"    0"
2019-06-26T21:54:03.849Z,"    0"
2019-06-26T21:58:59.470Z,"    0"
2019-06-26T22:03:55.209Z,"    0"
2019-06-26T22:08:51.266Z,"    0"
2019-06-26T22:13:47.276Z,"    0"
2019-06-26T22:18:44.072Z,"    0"
2019-06-26T22:23:40.233Z,"    0"
2019-06-26T22:28:36.026Z,"    0"
2019-06-26T22:33:32.712Z,"    0"
2019-06-26T22:38:28.586Z,"    0"
2019-06-26T22:43:24.370Z,"    0"
2019-06-26T22:48:21.255Z,"    0"
2019-06-26T22:53:16.958Z,"    0"
2019-06-26T22:58:12.919Z,"    0"
2019-06-26T23:03:08.761Z,"    0"
2019-06-26T23:08:04.536Z,"    0"
2019-06-26T23:13:01.374Z,"    0"
2019-06-26T23:17:56.894Z,"    0"
2019-06-26T23:22:52.535Z,"    0"
2019-06-26T23:27:48.354Z,"    0"
2019-06-26T23:32:44.667Z,"    0"
2019-06-26T23:37:40.643Z,"    0"
2019-06-26T23:42:36.502Z,"    0"
2019-06-26T23:47:32.289Z,"    0"
2019-06-26T23:52:28.054Z,"    0"
2019-06-26T23:57:24.339Z,"    0"
